sensor_id;sensor_type;location;lat;lon;timestamp;temperature;humidity
50162;DHT22;36061;48.116;11.612;2023-02-28T00:00:20;-2.00;99.90
50162;DHT22;36061;48.116;11.612;2023-02-28T00:02:48;-2.00;99.90
50162;DHT22;36061;48.116;11.612;2023-02-28T00:05:19;-2.00;99.90
50162;DHT22;36061;48.116;11.612;2023-02-28T00:07:46;-2.10;99.90
50162;DHT22;36061;48.116;11.612;2023-02-28T00:10:16;-2.10;99.90
50162;DHT22;36061;48.116;11.612;2023-02-28T00:12:54;-2.10;99.90
50162;DHT22;36061;48.116;11.612;2023-02-28T00:15:34;-2.10;99.90
50162;DHT22;36061;48.116;11.612;2023-02-28T00:18:10;-2.10;99.90
50162;DHT22;36061;48.116;11.612;2023-02-28T00:20:49;-2.10;99.90
50162;DHT22;36061;48.116;11.612;2023-02-28T00:23:29;-2.10;99.90
50162;DHT22;36061;48.116;11.612;2023-02-28T00:26:15;-2.10;99.90
50162;DHT22;36061;48.116;11.612;2023-02-28T00:28:59;-2.20;99.90
50162;DHT22;36061;48.116;11.612;2023-02-28T00:31:26;-2.10;99.90
50162;DHT22;36061;48.116;11.612;2023-02-28T00:33:53;-2.20;99.90
50162;DHT22;36061;48.116;11.612;2023-02-28T00:36:20;-2.30;99.90
50162;DHT22;36061;48.116;11.612;2023-02-28T00:38:48;-2.30;99.90
50162;DHT22;36061;48.116;11.612;2023-02-28T00:41:15;-2.30;99.90
50162;DHT22;36061;48.116;11.612;2023-02-28T00:43:42;-2.30;99.90
50162;DHT22;36061;48.116;11.612;2023-02-28T00:46:12;-2.30;99.90
50162;DHT22;36061;48.116;11.612;2023-02-28T00:48:39;-2.20;99.90
50162;DHT22;36061;48.116;11.612;2023-02-28T00:51:06;-2.20;99.90
50162;DHT22;36061;48.116;11.612;2023-02-28T00:53:33;-2.30;99.90
50162;DHT22;36061;48.116;11.612;2023-02-28T00:56:02;-2.30;99.90
50162;DHT22;36061;48.116;11.612;2023-02-28T00:58:29;-2.30;99.90
50162;DHT22;36061;48.116;11.612;2023-02-28T01:00:56;-2.30;99.90
50162;DHT22;36061;48.116;11.612;2023-02-28T01:03:25;-2.30;99.90
50162;DHT22;36061;48.116;11.612;2023-02-28T01:05:52;-2.40;99.90
50162;DHT22;36061;48.116;11.612;2023-02-28T01:08:20;-2.40;99.90
50162;DHT22;36061;48.116;11.612;2023-02-28T01:10:47;-2.40;99.90
50162;DHT22;36061;48.116;11.612;2023-02-28T01:13:15;-2.40;99.90
50162;DHT22;36061;48.116;11.612;2023-02-28T01:15:45;-2.40;99.90
50162;DHT22;36061;48.116;11.612;2023-02-28T01:18:15;-2.40;99.90
50162;DHT22;36061;48.116;11.612;2023-02-28T01:20:56;-2.40;99.90
50162;DHT22;36061;48.116;11.612;2023-02-28T01:23:27;-2.40;99.90
50162;DHT22;36061;48.116;11.612;2023-02-28T01:25:55;-2.40;99.90
50162;DHT22;36061;48.116;11.612;2023-02-28T01:28:22;-2.40;99.90
50162;DHT22;36061;48.116;11.612;2023-02-28T01:30:50;-2.40;99.90
50162;DHT22;36061;48.116;11.612;2023-02-28T01:33:17;-2.40;99.90
50162;DHT22;36061;48.116;11.612;2023-02-28T01:35:46;-2.40;99.90
50162;DHT22;36061;48.116;11.612;2023-02-28T01:38:13;-2.50;99.90
50162;DHT22;36061;48.116;11.612;2023-02-28T01:40:40;-2.50;99.90
50162;DHT22;36061;48.116;11.612;2023-02-28T01:43:19;-2.50;99.90
50162;DHT22;36061;48.116;11.612;2023-02-28T01:45:48;-2.50;99.90
50162;DHT22;36061;48.116;11.612;2023-02-28T01:48:15;-2.50;99.90
50162;DHT22;36061;48.116;11.612;2023-02-28T01:50:46;-2.60;99.90
50162;DHT22;36061;48.116;11.612;2023-02-28T01:53:16;-2.50;99.90
50162;DHT22;36061;48.116;11.612;2023-02-28T01:55:47;-2.60;99.90
50162;DHT22;36061;48.116;11.612;2023-02-28T01:58:16;-2.60;99.90
50162;DHT22;36061;48.116;11.612;2023-02-28T02:00:43;-2.60;99.90
50162;DHT22;36061;48.116;11.612;2023-02-28T02:03:12;-2.60;99.90
50162;DHT22;36061;48.116;11.612;2023-02-28T02:05:41;-2.60;99.90
50162;DHT22;36061;48.116;11.612;2023-02-28T02:08:17;-2.60;99.90
50162;DHT22;36061;48.116;11.612;2023-02-28T02:10:47;-2.60;99.90
50162;DHT22;36061;48.116;11.612;2023-02-28T02:13:29;-2.60;99.90
50162;DHT22;36061;48.116;11.612;2023-02-28T02:16:06;-2.60;99.90
50162;DHT22;36061;48.116;11.612;2023-02-28T02:18:43;-2.60;99.90
50162;DHT22;36061;48.116;11.612;2023-02-28T02:27:55;-2.60;99.90
50162;DHT22;36061;48.116;11.612;2023-02-28T02:30:45;-2.70;99.90
50162;DHT22;36061;48.116;11.612;2023-02-28T02:33:33;-2.70;99.90
50162;DHT22;36061;48.116;11.612;2023-02-28T02:36:13;-2.70;99.90
50162;DHT22;36061;48.116;11.612;2023-02-28T02:38:49;-2.70;99.90
50162;DHT22;36061;48.116;11.612;2023-02-28T02:41:22;-2.70;99.90
50162;DHT22;36061;48.116;11.612;2023-02-28T02:43:54;-2.70;99.90
50162;DHT22;36061;48.116;11.612;2023-02-28T02:46:28;-2.70;99.90
50162;DHT22;36061;48.116;11.612;2023-02-28T02:49:00;-2.80;99.90
50162;DHT22;36061;48.116;11.612;2023-02-28T02:51:33;-2.70;99.90
50162;DHT22;36061;48.116;11.612;2023-02-28T02:54:05;-2.80;99.90
50162;DHT22;36061;48.116;11.612;2023-02-28T02:56:36;-2.80;99.90
50162;DHT22;36061;48.116;11.612;2023-02-28T02:59:11;-2.80;99.90
50162;DHT22;36061;48.116;11.612;2023-02-28T03:01:41;-2.80;99.90
50162;DHT22;36061;48.116;11.612;2023-02-28T03:04:10;-2.90;99.90
50162;DHT22;36061;48.116;11.612;2023-02-28T03:06:46;-2.90;99.90
50162;DHT22;36061;48.116;11.612;2023-02-28T03:09:21;-2.90;99.90
50162;DHT22;36061;48.116;11.612;2023-02-28T03:11:49;-2.90;99.90
50162;DHT22;36061;48.116;11.612;2023-02-28T03:14:26;-2.80;99.90
50162;DHT22;36061;48.116;11.612;2023-02-28T03:17:11;-2.90;99.90
50162;DHT22;36061;48.116;11.612;2023-02-28T03:20:04;-2.90;99.90
50162;DHT22;36061;48.116;11.612;2023-02-28T03:22:46;-2.90;99.90
50162;DHT22;36061;48.116;11.612;2023-02-28T03:25:23;-3.00;99.90
50162;DHT22;36061;48.116;11.612;2023-02-28T03:28:00;-3.00;99.90
50162;DHT22;36061;48.116;11.612;2023-02-28T03:30:35;-3.00;99.90
50162;DHT22;36061;48.116;11.612;2023-02-28T03:33:06;-3.00;99.90
50162;DHT22;36061;48.116;11.612;2023-02-28T03:35:37;-3.00;99.90
50162;DHT22;36061;48.116;11.612;2023-02-28T03:38:10;-2.90;99.90
50162;DHT22;36061;48.116;11.612;2023-02-28T03:40:43;-3.00;99.90
50162;DHT22;36061;48.116;11.612;2023-02-28T03:43:15;-2.90;99.90
50162;DHT22;36061;48.116;11.612;2023-02-28T03:45:45;-3.00;99.90
50162;DHT22;36061;48.116;11.612;2023-02-28T03:48:16;-3.00;99.90
50162;DHT22;36061;48.116;11.612;2023-02-28T03:50:46;-3.00;99.90
50162;DHT22;36061;48.116;11.612;2023-02-28T03:53:19;-3.00;99.90
50162;DHT22;36061;48.116;11.612;2023-02-28T03:55:50;-3.00;99.90
50162;DHT22;36061;48.116;11.612;2023-02-28T03:58:24;-3.00;99.90
50162;DHT22;36061;48.116;11.612;2023-02-28T04:00:59;-3.00;99.90
50162;DHT22;36061;48.116;11.612;2023-02-28T04:03:35;-3.00;99.90
50162;DHT22;36061;48.116;11.612;2023-02-28T04:06:03;-2.90;99.90
50162;DHT22;36061;48.116;11.612;2023-02-28T04:08:32;-2.90;99.90
50162;DHT22;36061;48.116;11.612;2023-02-28T04:11:03;-3.00;99.90
50162;DHT22;36061;48.116;11.612;2023-02-28T04:13:31;-3.00;99.90
50162;DHT22;36061;48.116;11.612;2023-02-28T04:15:58;-3.00;99.90
50162;DHT22;36061;48.116;11.612;2023-02-28T04:18:26;-2.20;99.90
50162;DHT22;36061;48.116;11.612;2023-02-28T04:21:09;-3.10;99.90
50162;DHT22;36061;48.116;11.612;2023-02-28T04:23:54;-3.20;99.90
50162;DHT22;36061;48.116;11.612;2023-02-28T04:26:29;-3.10;99.90
50162;DHT22;36061;48.116;11.612;2023-02-28T04:28:58;-3.20;99.90
50162;DHT22;36061;48.116;11.612;2023-02-28T04:31:29;-3.20;99.90
50162;DHT22;36061;48.116;11.612;2023-02-28T04:34:00;-3.10;99.90
50162;DHT22;36061;48.116;11.612;2023-02-28T04:36:29;-3.00;99.90
50162;DHT22;36061;48.116;11.612;2023-02-28T04:38:59;-3.00;99.90
50162;DHT22;36061;48.116;11.612;2023-02-28T04:41:28;-3.00;99.90
50162;DHT22;36061;48.116;11.612;2023-02-28T04:43:59;-2.90;99.90
50162;DHT22;36061;48.116;11.612;2023-02-28T04:46:30;-2.90;99.90
50162;DHT22;36061;48.116;11.612;2023-02-28T04:49:03;-2.10;99.90
50162;DHT22;36061;48.116;11.612;2023-02-28T04:51:40;-2.70;99.90
50162;DHT22;36061;48.116;11.612;2023-02-28T04:54:20;-2.70;99.90
50162;DHT22;36061;48.116;11.612;2023-02-28T04:57:00;-2.80;99.90
50162;DHT22;36061;48.116;11.612;2023-02-28T04:59:37;-2.70;99.90
50162;DHT22;36061;48.116;11.612;2023-02-28T05:02:12;-2.00;99.90
50162;DHT22;36061;48.116;11.612;2023-02-28T05:04:43;-2.70;99.90
50162;DHT22;36061;48.116;11.612;2023-02-28T05:07:17;-2.60;99.90
50162;DHT22;36061;48.116;11.612;2023-02-28T05:09:47;-2.60;99.90
50162;DHT22;36061;48.116;11.612;2023-02-28T05:12:15;-2.60;99.90
50162;DHT22;36061;48.116;11.612;2023-02-28T05:14:42;-2.60;99.90
50162;DHT22;36061;48.116;11.612;2023-02-28T05:17:10;-2.70;99.90
50162;DHT22;36061;48.116;11.612;2023-02-28T05:19:37;-2.60;99.90
50162;DHT22;36061;48.116;11.612;2023-02-28T05:22:11;-2.70;99.90
50162;DHT22;36061;48.116;11.612;2023-02-28T05:24:39;-2.60;99.90
50162;DHT22;36061;48.116;11.612;2023-02-28T05:27:09;-2.60;99.90
50162;DHT22;36061;48.116;11.612;2023-02-28T05:29:37;-2.50;99.90
50162;DHT22;36061;48.116;11.612;2023-02-28T05:32:09;-2.50;99.90
50162;DHT22;36061;48.116;11.612;2023-02-28T05:34:37;-2.50;99.90
50162;DHT22;36061;48.116;11.612;2023-02-28T05:37:04;-2.50;99.90
50162;DHT22;36061;48.116;11.612;2023-02-28T05:39:31;-2.40;99.90
50162;DHT22;36061;48.116;11.612;2023-02-28T05:41:58;-2.50;99.90
50162;DHT22;36061;48.116;11.612;2023-02-28T05:44:27;-2.40;99.90
50162;DHT22;36061;48.116;11.612;2023-02-28T05:46:55;-2.30;99.90
50162;DHT22;36061;48.116;11.612;2023-02-28T05:49:22;-2.40;99.90
50162;DHT22;36061;48.116;11.612;2023-02-28T05:51:49;-2.30;99.90
50162;DHT22;36061;48.116;11.612;2023-02-28T05:54:16;-2.30;99.90
50162;DHT22;36061;48.116;11.612;2023-02-28T05:56:43;-2.20;99.90
50162;DHT22;36061;48.116;11.612;2023-02-28T05:59:11;-2.20;99.90
50162;DHT22;36061;48.116;11.612;2023-02-28T06:01:42;-2.10;99.90
50162;DHT22;36061;48.116;11.612;2023-02-28T06:04:15;-2.10;99.90
50162;DHT22;36061;48.116;11.612;2023-02-28T06:06:43;-2.10;99.90
50162;DHT22;36061;48.116;11.612;2023-02-28T06:09:10;-2.10;99.90
50162;DHT22;36061;48.116;11.612;2023-02-28T06:11:38;-2.10;99.90
50162;DHT22;36061;48.116;11.612;2023-02-28T06:14:05;-2.10;99.90
50162;DHT22;36061;48.116;11.612;2023-02-28T06:16:34;-2.10;99.90
50162;DHT22;36061;48.116;11.612;2023-02-28T06:19:03;-2.00;99.90
50162;DHT22;36061;48.116;11.612;2023-02-28T06:21:31;-1.90;99.90
50162;DHT22;36061;48.116;11.612;2023-02-28T06:23:59;-1.90;99.90
50162;DHT22;36061;48.116;11.612;2023-02-28T06:26:26;-1.90;99.90
50162;DHT22;36061;48.116;11.612;2023-02-28T06:28:54;-1.90;99.90
50162;DHT22;36061;48.116;11.612;2023-02-28T06:31:21;-1.90;99.90
50162;DHT22;36061;48.116;11.612;2023-02-28T06:33:50;-1.90;99.90
50162;DHT22;36061;48.116;11.612;2023-02-28T06:36:18;-1.90;99.90
50162;DHT22;36061;48.116;11.612;2023-02-28T06:38:46;-1.90;99.90
50162;DHT22;36061;48.116;11.612;2023-02-28T06:41:17;-1.90;99.90
50162;DHT22;36061;48.116;11.612;2023-02-28T06:43:44;-1.90;99.90
50162;DHT22;36061;48.116;11.612;2023-02-28T06:46:13;-1.80;99.90
50162;DHT22;36061;48.116;11.612;2023-02-28T06:48:42;-1.90;99.90
50162;DHT22;36061;48.116;11.612;2023-02-28T06:51:11;-1.80;99.90
50162;DHT22;36061;48.116;11.612;2023-02-28T06:53:41;-1.80;99.90
50162;DHT22;36061;48.116;11.612;2023-02-28T06:56:11;-1.80;99.90
50162;DHT22;36061;48.116;11.612;2023-02-28T06:58:39;-1.80;99.90
50162;DHT22;36061;48.116;11.612;2023-02-28T07:01:07;-1.80;99.90
50162;DHT22;36061;48.116;11.612;2023-02-28T07:03:35;-1.80;99.90
50162;DHT22;36061;48.116;11.612;2023-02-28T07:06:04;-1.80;99.90
50162;DHT22;36061;48.116;11.612;2023-02-28T07:08:31;-1.70;99.90
50162;DHT22;36061;48.116;11.612;2023-02-28T07:11:00;-1.70;99.90
50162;DHT22;36061;48.116;11.612;2023-02-28T07:13:28;-1.70;99.90
50162;DHT22;36061;48.116;11.612;2023-02-28T07:15:56;-1.70;99.90
50162;DHT22;36061;48.116;11.612;2023-02-28T07:18:24;-1.60;99.90
50162;DHT22;36061;48.116;11.612;2023-02-28T07:20:52;-1.70;99.90
50162;DHT22;36061;48.116;11.612;2023-02-28T07:23:19;-1.70;99.90
50162;DHT22;36061;48.116;11.612;2023-02-28T07:25:47;-1.70;99.90
50162;DHT22;36061;48.116;11.612;2023-02-28T07:28:15;-1.70;99.90
50162;DHT22;36061;48.116;11.612;2023-02-28T07:30:43;-1.70;99.90
50162;DHT22;36061;48.116;11.612;2023-02-28T07:33:10;-1.70;99.90
50162;DHT22;36061;48.116;11.612;2023-02-28T07:35:37;-1.60;99.90
50162;DHT22;36061;48.116;11.612;2023-02-28T07:38:04;-1.60;99.90
50162;DHT22;36061;48.116;11.612;2023-02-28T07:40:33;-1.70;99.90
50162;DHT22;36061;48.116;11.612;2023-02-28T07:43:01;-1.60;99.90
50162;DHT22;36061;48.116;11.612;2023-02-28T07:45:30;-1.60;99.90
50162;DHT22;36061;48.116;11.612;2023-02-28T07:47:58;-1.70;99.90
50162;DHT22;36061;48.116;11.612;2023-02-28T07:50:25;-1.60;99.90
50162;DHT22;36061;48.116;11.612;2023-02-28T07:52:54;-1.70;99.90
50162;DHT22;36061;48.116;11.612;2023-02-28T07:55:22;-1.60;99.90
50162;DHT22;36061;48.116;11.612;2023-02-28T07:57:49;-1.50;99.90
50162;DHT22;36061;48.116;11.612;2023-02-28T08:00:16;-1.50;99.90
50162;DHT22;36061;48.116;11.612;2023-02-28T08:02:45;-1.50;99.90
50162;DHT22;36061;48.116;11.612;2023-02-28T08:05:13;-1.50;99.90
50162;DHT22;36061;48.116;11.612;2023-02-28T08:07:41;-1.50;99.90
50162;DHT22;36061;48.116;11.612;2023-02-28T08:10:10;-1.50;99.90
50162;DHT22;36061;48.116;11.612;2023-02-28T08:12:37;-1.40;99.90
50162;DHT22;36061;48.116;11.612;2023-02-28T08:15:07;-1.40;99.90
50162;DHT22;36061;48.116;11.612;2023-02-28T08:17:34;-1.40;99.90
50162;DHT22;36061;48.116;11.612;2023-02-28T08:20:05;-1.30;99.90
50162;DHT22;36061;48.116;11.612;2023-02-28T08:22:32;-1.20;99.90
50162;DHT22;36061;48.116;11.612;2023-02-28T08:25:00;-1.20;99.90
50162;DHT22;36061;48.116;11.612;2023-02-28T08:27:28;-1.20;99.90
50162;DHT22;36061;48.116;11.612;2023-02-28T08:29:56;-1.30;99.90
50162;DHT22;36061;48.116;11.612;2023-02-28T08:32:23;-1.20;99.90
50162;DHT22;36061;48.116;11.612;2023-02-28T08:34:50;-1.10;99.90
50162;DHT22;36061;48.116;11.612;2023-02-28T08:37:19;-1.10;99.90
50162;DHT22;36061;48.116;11.612;2023-02-28T08:39:46;-1.10;99.90
50162;DHT22;36061;48.116;11.612;2023-02-28T08:42:13;-1.20;99.90
50162;DHT22;36061;48.116;11.612;2023-02-28T08:44:41;-1.10;99.90
50162;DHT22;36061;48.116;11.612;2023-02-28T08:47:08;-1.10;99.90
50162;DHT22;36061;48.116;11.612;2023-02-28T08:49:36;-1.10;99.90
50162;DHT22;36061;48.116;11.612;2023-02-28T08:52:03;-1.10;99.90
50162;DHT22;36061;48.116;11.612;2023-02-28T08:54:32;-1.00;99.90
50162;DHT22;36061;48.116;11.612;2023-02-28T08:57:00;-1.00;99.90
50162;DHT22;36061;48.116;11.612;2023-02-28T08:59:27;-0.90;99.90
50162;DHT22;36061;48.116;11.612;2023-02-28T09:01:54;-0.90;99.90
50162;DHT22;36061;48.116;11.612;2023-02-28T09:04:22;-0.90;99.90
50162;DHT22;36061;48.116;11.612;2023-02-28T09:06:49;-0.90;99.90
50162;DHT22;36061;48.116;11.612;2023-02-28T09:09:16;-0.80;99.90
50162;DHT22;36061;48.116;11.612;2023-02-28T09:11:45;-0.80;99.90
50162;DHT22;36061;48.116;11.612;2023-02-28T09:14:12;-0.70;99.90
50162;DHT22;36061;48.116;11.612;2023-02-28T09:16:39;-0.80;99.90
50162;DHT22;36061;48.116;11.612;2023-02-28T09:19:06;-0.80;99.90
50162;DHT22;36061;48.116;11.612;2023-02-28T09:21:37;-0.70;99.90
50162;DHT22;36061;48.116;11.612;2023-02-28T09:24:04;-0.80;99.90
50162;DHT22;36061;48.116;11.612;2023-02-28T09:26:32;-0.70;99.90
50162;DHT22;36061;48.116;11.612;2023-02-28T09:29:01;-0.60;99.90
50162;DHT22;36061;48.116;11.612;2023-02-28T09:31:29;-0.60;99.90
50162;DHT22;36061;48.116;11.612;2023-02-28T09:33:57;-0.60;99.90
50162;DHT22;36061;48.116;11.612;2023-02-28T09:36:26;-0.60;99.90
50162;DHT22;36061;48.116;11.612;2023-02-28T09:38:54;-0.50;99.90
50162;DHT22;36061;48.116;11.612;2023-02-28T09:41:23;-0.50;99.90
50162;DHT22;36061;48.116;11.612;2023-02-28T09:43:53;-0.40;99.90
50162;DHT22;36061;48.116;11.612;2023-02-28T09:46:29;-0.30;99.90
50162;DHT22;36061;48.116;11.612;2023-02-28T09:48:59;-0.30;99.90
50162;DHT22;36061;48.116;11.612;2023-02-28T09:51:33;-0.30;99.90
50162;DHT22;36061;48.116;11.612;2023-02-28T09:54:01;-0.20;99.90
50162;DHT22;36061;48.116;11.612;2023-02-28T09:56:32;-0.10;99.90
50162;DHT22;36061;48.116;11.612;2023-02-28T09:59:02;-0.10;99.90
50162;DHT22;36061;48.116;11.612;2023-02-28T10:01:37;-0.10;99.90
50162;DHT22;36061;48.116;11.612;2023-02-28T10:04:10;-0.10;99.90
50162;DHT22;36061;48.116;11.612;2023-02-28T10:06:46;-0.20;99.90
50162;DHT22;36061;48.116;11.612;2023-02-28T10:09:17;-0.10;99.90
50162;DHT22;36061;48.116;11.612;2023-02-28T10:11:48;-0.10;99.90
50162;DHT22;36061;48.116;11.612;2023-02-28T10:14:19;-0.10;99.90
50162;DHT22;36061;48.116;11.612;2023-02-28T10:16:51;0.00;99.90
50162;DHT22;36061;48.116;11.612;2023-02-28T10:19:25;0.00;99.90
50162;DHT22;36061;48.116;11.612;2023-02-28T10:21:57;0.00;99.90
50162;DHT22;36061;48.116;11.612;2023-02-28T10:24:29;-0.10;99.90
50162;DHT22;36061;48.116;11.612;2023-02-28T10:27:00;0.00;99.90
50162;DHT22;36061;48.116;11.612;2023-02-28T10:29:29;0.10;99.90
50162;DHT22;36061;48.116;11.612;2023-02-28T10:32:01;0.30;99.90
50162;DHT22;36061;48.116;11.612;2023-02-28T10:34:30;0.30;99.90
50162;DHT22;36061;48.116;11.612;2023-02-28T10:36:59;0.30;99.90
50162;DHT22;36061;48.116;11.612;2023-02-28T10:39:41;0.40;99.90
50162;DHT22;36061;48.116;11.612;2023-02-28T10:42:24;0.50;99.90
50162;DHT22;36061;48.116;11.612;2023-02-28T10:45:11;0.60;99.90
50162;DHT22;36061;48.116;11.612;2023-02-28T10:47:49;0.80;99.90
50162;DHT22;36061;48.116;11.612;2023-02-28T10:50:33;0.80;99.90
50162;DHT22;36061;48.116;11.612;2023-02-28T10:53:14;0.90;99.90
50162;DHT22;36061;48.116;11.612;2023-02-28T10:55:43;1.00;99.90
50162;DHT22;36061;48.116;11.612;2023-02-28T10:58:24;1.00;99.90
50162;DHT22;36061;48.116;11.612;2023-02-28T11:00:52;1.10;99.90
50162;DHT22;36061;48.116;11.612;2023-02-28T11:03:31;1.00;99.90
50162;DHT22;36061;48.116;11.612;2023-02-28T11:06:05;1.00;99.90
50162;DHT22;36061;48.116;11.612;2023-02-28T11:08:32;1.00;99.90
50162;DHT22;36061;48.116;11.612;2023-02-28T11:11:04;1.10;99.90
50162;DHT22;36061;48.116;11.612;2023-02-28T11:13:34;1.10;99.90
50162;DHT22;36061;48.116;11.612;2023-02-28T11:16:05;1.20;99.90
50162;DHT22;36061;48.116;11.612;2023-02-28T11:18:38;1.10;99.90
50162;DHT22;36061;48.116;11.612;2023-02-28T11:21:08;1.10;99.90
50162;DHT22;36061;48.116;11.612;2023-02-28T11:23:39;1.00;99.90
50162;DHT22;36061;48.116;11.612;2023-02-28T11:26:07;1.10;99.90
50162;DHT22;36061;48.116;11.612;2023-02-28T11:28:38;1.10;99.90
50162;DHT22;36061;48.116;11.612;2023-02-28T11:31:16;1.10;99.90
50162;DHT22;36061;48.116;11.612;2023-02-28T11:33:48;1.10;99.90
50162;DHT22;36061;48.116;11.612;2023-02-28T11:36:19;1.20;99.90
50162;DHT22;36061;48.116;11.612;2023-02-28T11:38:47;1.40;99.90
50162;DHT22;36061;48.116;11.612;2023-02-28T11:41:31;1.40;99.90
50162;DHT22;36061;48.116;11.612;2023-02-28T11:44:08;1.40;99.90
50162;DHT22;36061;48.116;11.612;2023-02-28T11:46:43;1.50;99.90
50162;DHT22;36061;48.116;11.612;2023-02-28T11:49:27;1.50;99.90
50162;DHT22;36061;48.116;11.612;2023-02-28T11:52:00;1.50;99.90
50162;DHT22;36061;48.116;11.612;2023-02-28T11:54:36;1.60;99.90
50162;DHT22;36061;48.116;11.612;2023-02-28T11:57:27;1.60;99.90
50162;DHT22;36061;48.116;11.612;2023-02-28T12:00:03;1.70;99.90
50162;DHT22;36061;48.116;11.612;2023-02-28T12:02:54;1.80;99.90
50162;DHT22;36061;48.116;11.612;2023-02-28T12:05:30;1.90;99.90
50162;DHT22;36061;48.116;11.612;2023-02-28T12:08:07;2.10;99.90
50162;DHT22;36061;48.116;11.612;2023-02-28T12:10:49;2.10;99.90
50162;DHT22;36061;48.116;11.612;2023-02-28T12:13:23;2.20;99.90
50162;DHT22;36061;48.116;11.612;2023-02-28T12:16:17;2.40;99.90
50162;DHT22;36061;48.116;11.612;2023-02-28T12:18:57;2.50;99.90
50162;DHT22;36061;48.116;11.612;2023-02-28T12:21:35;2.60;99.90
50162;DHT22;36061;48.116;11.612;2023-02-28T12:27:13;2.70;99.90
50162;DHT22;36061;48.116;11.612;2023-02-28T12:29:47;2.70;99.90
50162;DHT22;36061;48.116;11.612;2023-02-28T12:32:20;2.60;99.90
50162;DHT22;36061;48.116;11.612;2023-02-28T12:34:52;2.50;99.90
50162;DHT22;36061;48.116;11.612;2023-02-28T12:37:25;2.50;99.90
50162;DHT22;36061;48.116;11.612;2023-02-28T12:39:59;2.40;99.90
50162;DHT22;36061;48.116;11.612;2023-02-28T12:42:31;2.40;99.90
50162;DHT22;36061;48.116;11.612;2023-02-28T12:45:02;2.40;99.90
50162;DHT22;36061;48.116;11.612;2023-02-28T12:47:30;2.50;99.90
50162;DHT22;36061;48.116;11.612;2023-02-28T12:50:00;2.70;99.90
50162;DHT22;36061;48.116;11.612;2023-02-28T12:52:37;2.70;99.90
50162;DHT22;36061;48.116;11.612;2023-02-28T12:55:14;2.70;99.90
50162;DHT22;36061;48.116;11.612;2023-02-28T12:57:48;2.80;99.90
50162;DHT22;36061;48.116;11.612;2023-02-28T13:00:19;2.80;99.90
50162;DHT22;36061;48.116;11.612;2023-02-28T13:09:08;2.60;99.90
50162;DHT22;36061;48.116;11.612;2023-02-28T13:11:42;2.70;99.90
50162;DHT22;36061;48.116;11.612;2023-02-28T13:14:20;2.70;99.90
50162;DHT22;36061;48.116;11.612;2023-02-28T13:16:58;2.70;99.90
50162;DHT22;36061;48.116;11.612;2023-02-28T13:19:27;2.70;99.90
50162;DHT22;36061;48.116;11.612;2023-02-28T13:21:56;2.70;99.90
50162;DHT22;36061;48.116;11.612;2023-02-28T13:24:40;2.60;99.90
50162;DHT22;36061;48.116;11.612;2023-02-28T13:27:36;2.70;99.90
50162;DHT22;36061;48.116;11.612;2023-02-28T13:33:25;2.90;99.90
50162;DHT22;36061;48.116;11.612;2023-02-28T13:36:22;3.00;99.90
50162;DHT22;36061;48.116;11.612;2023-02-28T13:38:50;3.20;99.90
50162;DHT22;36061;48.116;11.612;2023-02-28T13:41:46;3.20;99.90
50162;DHT22;36061;48.116;11.612;2023-02-28T13:44:15;3.20;99.90
50162;DHT22;36061;48.116;11.612;2023-02-28T13:47:19;3.10;99.90
50162;DHT22;36061;48.116;11.612;2023-02-28T13:49:48;3.10;99.90
50162;DHT22;36061;48.116;11.612;2023-02-28T13:52:20;3.10;99.90
50162;DHT22;36061;48.116;11.612;2023-02-28T13:54:56;3.10;99.90
50162;DHT22;36061;48.116;11.612;2023-02-28T13:57:35;3.10;99.90
50162;DHT22;36061;48.116;11.612;2023-02-28T14:00:23;3.00;99.90
50162;DHT22;36061;48.116;11.612;2023-02-28T14:03:13;3.00;99.90
50162;DHT22;36061;48.116;11.612;2023-02-28T14:05:43;3.00;99.90
50162;DHT22;36061;48.116;11.612;2023-02-28T14:08:15;3.00;99.90
50162;DHT22;36061;48.116;11.612;2023-02-28T14:10:46;3.00;99.90
50162;DHT22;36061;48.116;11.612;2023-02-28T14:13:41;2.90;99.90
50162;DHT22;36061;48.116;11.612;2023-02-28T14:16:13;3.00;99.90
50162;DHT22;36061;48.116;11.612;2023-02-28T14:18:42;3.00;99.90
50162;DHT22;36061;48.116;11.612;2023-02-28T14:21:21;3.10;99.90
50162;DHT22;36061;48.116;11.612;2023-02-28T14:27:11;3.00;99.90
50162;DHT22;36061;48.116;11.612;2023-02-28T14:30:11;3.10;99.90
50162;DHT22;36061;48.116;11.612;2023-02-28T14:32:46;3.10;99.90
50162;DHT22;36061;48.116;11.612;2023-02-28T14:35:22;3.10;99.90
50162;DHT22;36061;48.116;11.612;2023-02-28T14:37:53;3.00;99.90
50162;DHT22;36061;48.116;11.612;2023-02-28T14:40:26;2.90;99.90
50162;DHT22;36061;48.116;11.612;2023-02-28T14:42:56;2.80;99.90
50162;DHT22;36061;48.116;11.612;2023-02-28T14:45:27;2.70;99.90
50162;DHT22;36061;48.116;11.612;2023-02-28T14:47:57;2.70;99.90
50162;DHT22;36061;48.116;11.612;2023-02-28T14:50:28;2.70;99.90
50162;DHT22;36061;48.116;11.612;2023-02-28T14:52:57;2.70;99.90
50162;DHT22;36061;48.116;11.612;2023-02-28T14:55:28;2.70;99.90
50162;DHT22;36061;48.116;11.612;2023-02-28T14:57:57;2.60;99.90
50162;DHT22;36061;48.116;11.612;2023-02-28T15:00:27;2.60;99.90
50162;DHT22;36061;48.116;11.612;2023-02-28T15:02:55;2.60;99.90
50162;DHT22;36061;48.116;11.612;2023-02-28T15:05:26;2.70;99.90
50162;DHT22;36061;48.116;11.612;2023-02-28T15:08:12;2.80;99.90
50162;DHT22;36061;48.116;11.612;2023-02-28T15:10:41;2.80;99.90
50162;DHT22;36061;48.116;11.612;2023-02-28T15:13:13;2.80;99.90
50162;DHT22;36061;48.116;11.612;2023-02-28T15:15:49;2.80;99.90
50162;DHT22;36061;48.116;11.612;2023-02-28T15:18:27;2.80;99.90
50162;DHT22;36061;48.116;11.612;2023-02-28T15:20:58;2.80;99.90
50162;DHT22;36061;48.116;11.612;2023-02-28T15:23:26;2.80;99.90
50162;DHT22;36061;48.116;11.612;2023-02-28T15:25:54;2.80;99.90
50162;DHT22;36061;48.116;11.612;2023-02-28T15:28:22;2.80;99.90
50162;DHT22;36061;48.116;11.612;2023-02-28T15:30:55;2.80;99.90
50162;DHT22;36061;48.116;11.612;2023-02-28T15:33:24;2.80;99.90
50162;DHT22;36061;48.116;11.612;2023-02-28T15:36:03;2.80;99.90
50162;DHT22;36061;48.116;11.612;2023-02-28T15:38:35;2.70;99.90
50162;DHT22;36061;48.116;11.612;2023-02-28T15:41:02;2.70;99.90
50162;DHT22;36061;48.116;11.612;2023-02-28T15:43:35;2.80;99.90
50162;DHT22;36061;48.116;11.612;2023-02-28T15:46:05;2.80;99.90
50162;DHT22;36061;48.116;11.612;2023-02-28T15:48:36;2.70;99.90
50162;DHT22;36061;48.116;11.612;2023-02-28T15:51:07;2.70;99.90
50162;DHT22;36061;48.116;11.612;2023-02-28T15:53:37;2.70;99.90
50162;DHT22;36061;48.116;11.612;2023-02-28T15:56:20;2.70;99.90
50162;DHT22;36061;48.116;11.612;2023-02-28T15:58:49;2.60;99.90
50162;DHT22;36061;48.116;11.612;2023-02-28T16:01:23;2.60;99.90
50162;DHT22;36061;48.116;11.612;2023-02-28T16:03:54;2.50;99.90
50162;DHT22;36061;48.116;11.612;2023-02-28T16:06:42;2.60;99.90
50162;DHT22;36061;48.116;11.612;2023-02-28T16:09:12;2.60;99.90
50162;DHT22;36061;48.116;11.612;2023-02-28T16:11:43;2.60;99.90